createdAt,value
2023-04-07T00:00:31.298Z,0.00
2023-04-07T00:01:31.334Z,0.00
2023-04-07T00:02:31.294Z,0.00
2023-04-07T00:03:31.491Z,0.00
2023-04-07T00:04:31.253Z,0.00
2023-04-07T00:05:31.286Z,0.00
2023-04-07T00:06:31.170Z,0.00
2023-04-07T00:07:31.831Z,0.00
2023-04-07T00:08:31.188Z,0.00
2023-04-07T00:09:31.154Z,0.00
2023-04-07T00:10:31.154Z,0.00
2023-04-07T00:11:31.104Z,0.00
2023-04-07T00:12:31.176Z,0.00
2023-04-07T00:13:31.118Z,0.00
2023-04-07T00:14:31.191Z,0.00
2023-04-07T00:15:31.122Z,0.00
2023-04-07T00:16:31.081Z,0.00
2023-04-07T00:17:31.147Z,0.00
2023-04-07T00:18:31.076Z,0.00
2023-04-07T00:19:30.997Z,0.00
2023-04-07T00:20:31.005Z,0.00
2023-04-07T00:21:30.980Z,0.00
2023-04-07T00:22:30.968Z,0.00
2023-04-07T00:23:30.944Z,0.00
2023-04-07T00:24:34.285Z,0.00
2023-04-07T00:25:30.938Z,0.00
2023-04-07T00:26:30.938Z,0.00
2023-04-07T00:27:30.920Z,0.00
2023-04-07T00:28:30.927Z,0.00
2023-04-07T00:29:30.887Z,0.00
2023-04-07T00:30:30.874Z,0.00
2023-04-07T00:31:30.926Z,0.00
2023-04-07T00:32:30.880Z,0.00
2023-04-07T00:33:30.853Z,0.00
2023-04-07T00:34:30.859Z,0.00
2023-04-07T00:35:30.912Z,0.00
2023-04-07T00:36:30.791Z,0.00
2023-04-07T00:37:30.819Z,0.00
2023-04-07T00:38:30.773Z,0.00
2023-04-07T00:39:30.760Z,0.00
2023-04-07T00:40:30.738Z,0.00
2023-04-07T00:41:30.718Z,0.00
2023-04-07T00:42:30.724Z,0.00
2023-04-07T00:43:30.740Z,0.00
2023-04-07T00:44:30.724Z,0.00
2023-04-07T00:45:30.671Z,0.00
2023-04-07T00:46:30.738Z,0.00
2023-04-07T00:47:30.660Z,0.00
2023-04-07T00:48:30.647Z,0.00
2023-04-07T00:49:30.663Z,0.00
2023-04-07T00:50:30.628Z,0.00
2023-04-07T00:51:30.644Z,0.00
2023-04-07T00:52:30.594Z,0.00
2023-04-07T00:53:30.591Z,0.00
2023-04-07T00:54:30.572Z,0.00
2023-04-07T00:55:30.582Z,0.00
2023-04-07T00:56:30.633Z,0.00
2023-04-07T00:57:30.675Z,0.00
2023-04-07T00:58:30.535Z,0.00
2023-04-07T00:59:30.535Z,0.00
2023-04-07T01:00:30.517Z,0.00
2023-04-07T01:01:30.637Z,0.00
2023-04-07T01:02:30.681Z,0.00
2023-04-07T01:03:30.766Z,0.00
2023-04-07T01:04:30.605Z,0.00
2023-04-07T01:05:30.444Z,0.00
2023-04-07T01:06:30.506Z,0.00
2023-04-07T01:07:30.437Z,0.00
2023-04-07T01:08:30.410Z,0.00
2023-04-07T01:09:30.432Z,0.00
2023-04-07T01:10:30.424Z,0.00
2023-04-07T01:11:30.365Z,0.00
2023-04-07T01:12:30.354Z,0.00
2023-04-07T01:13:30.358Z,0.00
2023-04-07T01:14:30.400Z,0.00
2023-04-07T01:15:30.332Z,0.00
2023-04-07T01:16:30.426Z,0.00
2023-04-07T01:17:30.289Z,0.00
2023-04-07T01:18:30.274Z,0.00
2023-04-07T01:19:30.301Z,0.00
2023-04-07T01:20:30.262Z,0.00
2023-04-07T01:21:30.234Z,0.00
2023-04-07T01:22:30.229Z,0.00
2023-04-07T01:23:30.220Z,0.00
2023-04-07T01:24:30.207Z,0.00
2023-04-07T01:25:30.210Z,0.00
2023-04-07T01:26:30.219Z,0.00
2023-04-07T01:27:30.155Z,0.00
2023-04-07T01:28:30.160Z,0.00
2023-04-07T01:29:30.119Z,0.00
2023-04-07T01:30:30.161Z,0.00
2023-04-07T01:31:30.186Z,0.00
2023-04-07T01:32:30.141Z,0.00
2023-04-07T01:33:30.090Z,0.00
2023-04-07T01:34:30.051Z,0.00
2023-04-07T01:35:30.067Z,0.00
2023-04-07T01:36:30.040Z,0.00
2023-04-07T01:37:30.053Z,0.00
2023-04-07T01:38:30.008Z,0.00
2023-04-07T01:39:30.004Z,0.00
2023-04-07T01:40:30.001Z,0.00
2023-04-07T01:41:29.971Z,0.00
2023-04-07T01:42:29.995Z,0.00
2023-04-07T01:43:29.943Z,0.00
2023-04-07T01:44:29.949Z,0.00
2023-04-07T01:45:29.947Z,0.00
2023-04-07T01:46:29.912Z,0.00
2023-04-07T01:47:29.998Z,0.00
2023-04-07T01:48:29.980Z,0.00
2023-04-07T01:49:29.903Z,0.00
2023-04-07T01:50:30.103Z,0.00
2023-04-07T01:51:29.928Z,0.00
2023-04-07T01:52:29.900Z,0.00
2023-04-07T01:53:29.855Z,0.00
2023-04-07T01:54:29.819Z,0.00
2023-04-07T01:55:29.801Z,0.00
2023-04-07T01:56:29.815Z,0.00
2023-04-07T01:57:29.813Z,0.00
2023-04-07T01:58:29.788Z,0.00
2023-04-07T01:59:29.792Z,0.00
2023-04-07T02:00:29.767Z,0.00
2023-04-07T02:01:29.882Z,0.00
2023-04-07T02:02:29.846Z,0.00
2023-04-07T02:03:29.863Z,0.00
2023-04-07T02:04:29.712Z,0.00
2023-04-07T02:05:29.755Z,0.00
2023-04-07T02:06:29.683Z,0.00
2023-04-07T02:07:29.718Z,0.00
2023-04-07T02:08:31.179Z,0.00
2023-04-07T02:09:29.701Z,0.00
2023-04-07T02:10:38.380Z,0.00
2023-04-07T02:11:29.597Z,0.00
2023-04-07T02:12:29.619Z,0.00
2023-04-07T02:13:29.639Z,0.00
2023-04-07T02:14:29.608Z,0.00
2023-04-07T02:15:29.650Z,0.00
2023-04-07T02:16:29.607Z,0.00
2023-04-07T02:17:29.636Z,0.00
2023-04-07T02:18:29.514Z,0.00
2023-04-07T02:19:29.514Z,0.00
2023-04-07T02:20:29.549Z,0.00
2023-04-07T02:21:29.496Z,0.00
2023-04-07T02:22:29.491Z,0.00
2023-04-07T02:23:39.200Z,0.00
2023-04-07T02:24:36.970Z,0.00
2023-04-07T02:25:29.450Z,0.00
2023-04-07T02:26:29.456Z,0.00
2023-04-07T02:27:29.430Z,0.00
2023-04-07T02:28:29.439Z,0.00
2023-04-07T02:29:29.396Z,0.00
2023-04-07T02:30:29.393Z,0.00
2023-04-07T02:31:29.426Z,0.00
2023-04-07T02:32:29.431Z,0.00
2023-04-07T02:33:29.350Z,0.00
2023-04-07T02:34:29.365Z,0.00
2023-04-07T02:35:29.311Z,0.00
2023-04-07T02:36:29.338Z,0.00
2023-04-07T02:37:29.331Z,0.00
2023-04-07T02:38:29.277Z,0.00
2023-04-07T02:39:29.292Z,0.00
2023-04-07T02:40:29.263Z,0.00
2023-04-07T02:41:29.240Z,0.00
2023-04-07T02:42:29.267Z,0.00
2023-04-07T02:43:29.224Z,0.00
2023-04-07T02:44:29.227Z,0.00
2023-04-07T02:45:29.201Z,0.00
2023-04-07T02:46:29.286Z,0.00
2023-04-07T02:47:29.234Z,0.00
2023-04-07T02:48:29.142Z,0.00
2023-04-07T02:49:29.155Z,0.00
2023-04-07T02:50:29.186Z,0.00
2023-04-07T02:51:29.133Z,0.00
2023-04-07T02:52:29.123Z,0.00
2023-04-07T02:53:29.090Z,0.00
2023-04-07T02:54:29.105Z,0.00
2023-04-07T02:55:29.072Z,0.00
2023-04-07T02:56:29.064Z,0.00
2023-04-07T02:57:29.060Z,0.00
2023-04-07T02:58:29.030Z,0.00
2023-04-07T02:59:29.028Z,0.00
2023-04-07T03:00:29.004Z,0.00
2023-04-07T03:01:29.025Z,0.00
2023-04-07T03:02:29.076Z,0.00
2023-04-07T03:03:29.180Z,0.00
2023-04-07T03:04:28.976Z,0.00
2023-04-07T03:05:28.930Z,0.00
2023-04-07T03:06:28.911Z,0.00
2023-04-07T03:07:28.930Z,0.00
2023-04-07T03:08:28.904Z,0.00
2023-04-07T03:09:28.890Z,0.00
2023-04-07T03:10:28.869Z,0.00
2023-04-07T03:11:28.876Z,0.00
2023-04-07T03:12:28.848Z,0.00
2023-04-07T03:13:28.811Z,0.00
2023-04-07T03:14:28.839Z,0.00
2023-04-07T03:15:28.809Z,0.00
2023-04-07T03:16:28.786Z,0.00
2023-04-07T03:17:28.838Z,0.00
2023-04-07T03:18:28.805Z,0.00
2023-04-07T03:19:28.736Z,0.00
2023-04-07T03:20:30.020Z,0.00
2023-04-07T03:21:28.783Z,0.00
2023-04-07T03:22:28.718Z,0.00
2023-04-07T03:23:29.421Z,0.00
2023-04-07T03:24:28.697Z,0.00
2023-04-07T03:25:28.708Z,0.00
2023-04-07T03:26:28.682Z,0.00
2023-04-07T03:27:28.714Z,0.00
2023-04-07T03:28:28.814Z,0.00
2023-04-07T03:29:28.712Z,0.00
2023-04-07T03:30:28.755Z,0.00
2023-04-07T03:31:28.676Z,0.00
2023-04-07T03:32:28.589Z,0.00
2023-04-07T03:33:28.596Z,0.00
2023-04-07T03:34:28.563Z,0.00
2023-04-07T03:35:28.534Z,0.00
2023-04-07T03:36:28.572Z,0.00
2023-04-07T03:37:28.511Z,0.00
2023-04-07T03:38:28.538Z,0.00
2023-04-07T03:39:28.538Z,0.00
2023-04-07T03:40:28.484Z,0.00
2023-04-07T03:41:28.531Z,0.00
2023-04-07T03:42:28.492Z,0.00
2023-04-07T03:43:28.461Z,0.00
2023-04-07T03:44:28.501Z,0.00
2023-04-07T03:45:28.414Z,0.00
2023-04-07T03:46:28.467Z,0.00
2023-04-07T03:47:28.445Z,0.00
2023-04-07T03:48:29.265Z,0.00
2023-04-07T03:49:28.347Z,0.00
2023-04-07T03:50:28.354Z,0.00
2023-04-07T03:51:28.331Z,0.00
2023-04-07T03:52:28.326Z,0.00
2023-04-07T03:53:28.313Z,0.00
2023-04-07T03:54:28.333Z,0.00
2023-04-07T03:55:28.303Z,0.00
2023-04-07T03:56:29.057Z,0.00
2023-04-07T03:57:28.249Z,0.00
2023-04-07T03:58:28.256Z,0.00
2023-04-07T03:59:28.246Z,0.00
2023-04-07T04:00:28.249Z,0.00
2023-04-07T04:01:28.275Z,0.00
2023-04-07T04:02:28.235Z,0.00
2023-04-07T04:03:28.314Z,0.00
2023-04-07T04:04:28.285Z,0.00
2023-04-07T04:05:28.158Z,0.00
2023-04-07T04:06:28.174Z,0.00
2023-04-07T04:07:28.160Z,0.00
2023-04-07T04:08:28.108Z,0.00
2023-04-07T04:09:28.131Z,0.00
2023-04-07T04:10:28.095Z,0.00
2023-04-07T04:11:28.101Z,0.00
2023-04-07T04:12:28.059Z,0.00
2023-04-07T04:13:28.070Z,0.00
2023-04-07T04:14:28.057Z,0.00
2023-04-07T04:15:28.062Z,0.00
2023-04-07T04:16:28.058Z,0.00
2023-04-07T04:17:28.057Z,0.00
2023-04-07T04:18:28.018Z,0.00
2023-04-07T04:19:28.006Z,0.00
2023-04-07T04:20:27.947Z,0.00
2023-04-07T04:21:27.961Z,0.00
2023-04-07T04:22:28.008Z,0.00
2023-04-07T04:23:27.937Z,0.00
2023-04-07T04:24:27.934Z,0.00
2023-04-07T04:25:27.901Z,0.00
2023-04-07T04:26:27.897Z,0.00
2023-04-07T04:27:27.909Z,0.00
2023-04-07T04:28:27.852Z,0.00
2023-04-07T04:29:27.844Z,0.00
2023-04-07T04:30:27.869Z,0.00
2023-04-07T04:31:27.935Z,0.00
2023-04-07T04:32:27.868Z,0.00
2023-04-07T04:33:27.808Z,0.00
2023-04-07T04:34:27.829Z,0.00
2023-04-07T04:35:27.782Z,4.00
2023-04-07T04:36:27.835Z,4.00
2023-04-07T04:37:27.748Z,0.00
2023-04-07T04:38:27.741Z,4.00
2023-04-07T04:39:27.766Z,4.00
2023-04-07T04:40:27.748Z,4.00
2023-04-07T04:41:27.865Z,4.00
2023-04-07T04:42:27.814Z,4.00
2023-04-07T04:43:27.668Z,4.00
2023-04-07T04:44:27.664Z,8.00
2023-04-07T04:45:27.648Z,8.00
2023-04-07T04:46:27.666Z,4.00
2023-04-07T04:47:27.659Z,8.00
2023-04-07T04:48:27.637Z,8.00
2023-04-07T04:49:27.593Z,12.00
2023-04-07T04:50:27.575Z,12.00
2023-04-07T04:51:27.608Z,12.00
2023-04-07T04:52:27.559Z,12.00
2023-04-07T04:53:27.703Z,16.00
2023-04-07T04:54:27.531Z,16.00
2023-04-07T04:55:27.522Z,24.00
2023-04-07T04:56:27.553Z,24.00
2023-04-07T04:57:27.545Z,24.00
2023-04-07T04:58:27.460Z,28.00
2023-04-07T04:59:27.518Z,28.00
2023-04-07T05:00:27.471Z,32.00
2023-04-07T05:01:27.508Z,36.00
2023-04-07T05:02:27.572Z,36.00
2023-04-07T05:03:27.656Z,32.00
2023-04-07T05:04:27.562Z,32.00
2023-04-07T05:05:27.380Z,32.00
2023-04-07T05:06:27.411Z,36.00
2023-04-07T05:07:27.383Z,40.00
2023-04-07T05:08:27.349Z,40.00
2023-04-07T05:09:27.354Z,44.00
2023-04-07T05:10:27.363Z,48.00
2023-04-07T05:11:27.360Z,52.00
2023-04-07T05:12:27.365Z,60.00
2023-04-07T05:13:27.325Z,60.00
2023-04-07T05:14:27.309Z,68.00
2023-04-07T05:15:27.346Z,72.00
2023-04-07T05:16:27.259Z,76.00
2023-04-07T05:17:27.963Z,84.00
2023-04-07T05:18:27.202Z,84.00
2023-04-07T05:19:27.252Z,96.00
2023-04-07T05:20:27.205Z,108.00
2023-04-07T05:21:27.230Z,116.00
2023-04-07T05:22:27.139Z,132.00
2023-04-07T05:23:27.262Z,140.00
2023-04-07T05:24:29.069Z,148.00
2023-04-07T05:25:27.208Z,148.00
2023-04-07T05:26:27.300Z,148.00
2023-04-07T05:27:27.119Z,164.00
2023-04-07T05:28:27.116Z,160.00
2023-04-07T05:29:27.232Z,176.00
2023-04-07T05:30:27.168Z,196.00
2023-04-07T05:31:27.162Z,204.00
2023-04-07T05:32:27.222Z,220.00
2023-04-07T05:33:27.086Z,228.00
2023-04-07T05:34:27.591Z,232.00
2023-04-07T05:35:27.123Z,228.00
2023-04-07T05:36:35.514Z,260.00
2023-04-07T05:37:27.010Z,320.00
2023-04-07T05:38:27.170Z,360.00
2023-04-07T05:39:27.254Z,340.00
2023-04-07T05:40:27.202Z,340.00
2023-04-07T05:41:27.230Z,344.00
2023-04-07T05:42:27.305Z,392.00
2023-04-07T05:43:27.178Z,460.00
2023-04-07T05:44:26.998Z,520.00
2023-04-07T05:45:27.296Z,540.00
2023-04-07T05:46:26.983Z,508.00
2023-04-07T05:47:27.135Z,480.00
2023-04-07T05:48:27.141Z,512.00
2023-04-07T05:49:27.151Z,540.00
2023-04-07T05:50:27.163Z,528.00
2023-04-07T05:51:26.926Z,540.00
2023-04-07T05:52:26.968Z,548.00
2023-04-07T05:53:27.039Z,544.00
2023-04-07T05:54:26.826Z,540.00
2023-04-07T05:55:26.875Z,580.00
2023-04-07T05:56:26.929Z,676.00
2023-04-07T05:57:26.956Z,708.00
2023-04-07T05:58:26.957Z,724.00
2023-04-07T05:59:26.773Z,708.00
2023-04-07T06:00:26.776Z,664.00
2023-04-07T06:01:27.069Z,632.00
2023-04-07T06:02:27.354Z,580.00
2023-04-07T06:03:27.858Z,548.00
2023-04-07T06:04:26.745Z,488.00
2023-04-07T06:05:27.083Z,496.00
2023-04-07T06:06:26.673Z,548.00
2023-04-07T06:07:26.665Z,576.00
2023-04-07T06:08:26.872Z,564.00
2023-04-07T06:09:26.940Z,540.00
2023-04-07T06:10:26.728Z,544.00
2023-04-07T06:11:26.774Z,568.00
2023-04-07T06:12:26.944Z,596.00
2023-04-07T06:13:26.694Z,620.00
2023-04-07T06:14:26.988Z,632.00
2023-04-07T06:15:26.621Z,624.00
2023-04-07T06:16:26.623Z,648.00
2023-04-07T06:17:26.807Z,660.00
2023-04-07T06:18:26.668Z,640.00
2023-04-07T06:19:26.639Z,628.00
2023-04-07T06:20:26.804Z,604.00
2023-04-07T06:21:26.659Z,612.00
2023-04-07T06:22:26.956Z,620.00
2023-04-07T06:23:26.670Z,668.00
2023-04-07T06:24:26.553Z,692.00
2023-04-07T06:25:26.662Z,700.00
2023-04-07T06:26:26.470Z,716.00
2023-04-07T06:27:26.586Z,740.00
2023-04-07T06:28:26.394Z,784.00
2023-04-07T06:29:27.650Z,836.00
2023-04-07T06:30:26.594Z,888.00
2023-04-07T06:31:26.395Z,984.00
2023-04-07T06:32:26.746Z,1072.00
2023-04-07T06:33:26.637Z,1136.00
2023-04-07T06:34:28.192Z,1180.00
2023-04-07T06:35:26.397Z,1004.00
2023-04-07T06:36:26.412Z,872.00
2023-04-07T06:37:26.380Z,1088.00
2023-04-07T06:38:27.131Z,1128.00
2023-04-07T06:39:26.380Z,1136.00
2023-04-07T06:40:26.530Z,1060.00
2023-04-07T06:41:26.486Z,904.00
2023-04-07T06:42:26.765Z,744.00
2023-04-07T06:43:28.974Z,724.00
2023-04-07T06:44:26.345Z,788.00
2023-04-07T06:45:26.518Z,768.00
2023-04-07T06:46:26.379Z,912.00
2023-04-07T06:47:26.111Z,1108.00
2023-04-07T06:48:26.205Z,936.00
2023-04-07T06:49:26.339Z,1052.00
2023-04-07T06:50:26.208Z,1076.00
2023-04-07T06:51:26.373Z,1656.00
2023-04-07T06:52:26.370Z,1980.00
2023-04-07T06:53:26.142Z,1684.00
2023-04-07T06:54:26.186Z,1420.00
2023-04-07T06:55:26.889Z,1092.00
2023-04-07T06:56:27.202Z,896.00
2023-04-07T06:57:26.389Z,948.00
2023-04-07T06:58:26.277Z,904.00
2023-04-07T06:59:25.975Z,924.00
2023-04-07T07:00:27.320Z,944.00
2023-04-07T07:01:26.191Z,1052.00
2023-04-07T07:02:26.108Z,984.00
2023-04-07T07:03:26.571Z,1028.00
2023-04-07T07:04:26.492Z,1184.00
2023-04-07T07:05:26.041Z,1244.00
2023-04-07T07:06:26.581Z,1124.00
2023-04-07T07:07:26.030Z,1072.00
2023-04-07T07:08:26.300Z,944.00
2023-04-07T07:09:26.174Z,900.00
2023-04-07T07:10:26.197Z,976.00
2023-04-07T07:11:26.035Z,976.00
2023-04-07T07:12:25.954Z,1012.00
2023-04-07T07:13:25.851Z,1020.00
2023-04-07T07:14:25.957Z,1100.00
2023-04-07T07:15:26.934Z,1188.00
2023-04-07T07:16:25.814Z,1128.00
2023-04-07T07:17:26.427Z,1320.00
2023-04-07T07:18:35.284Z,1408.00
2023-04-07T07:19:25.835Z,1156.00
2023-04-07T07:20:26.147Z,1012.00
2023-04-07T07:21:26.037Z,1072.00
2023-04-07T07:22:25.714Z,1012.00
2023-04-07T07:23:26.620Z,1080.00
2023-04-07T07:24:25.765Z,1336.00
2023-04-07T07:25:25.781Z,1392.00
2023-04-07T07:26:27.493Z,1160.00
2023-04-07T07:27:26.600Z,1104.00
2023-04-07T07:28:28.229Z,1028.00
2023-04-07T07:29:29.847Z,972.00
2023-04-07T07:30:25.635Z,1000.00
2023-04-07T07:31:25.677Z,888.00
2023-04-07T07:32:25.679Z,904.00
2023-04-07T07:33:25.692Z,928.00
2023-04-07T07:34:25.988Z,908.00
2023-04-07T07:35:25.685Z,940.00
2023-04-07T07:36:25.775Z,1004.00
2023-04-07T07:37:25.694Z,1064.00
2023-04-07T07:38:25.886Z,1196.00
2023-04-07T07:39:26.011Z,1212.00
2023-04-07T07:40:25.642Z,1204.00
2023-04-07T07:41:25.562Z,1412.00
2023-04-07T07:42:25.531Z,1672.00
2023-04-07T07:43:25.653Z,1684.00
2023-04-07T07:44:25.516Z,1492.00
2023-04-07T07:45:26.482Z,1516.00
2023-04-07T07:46:25.527Z,1800.00
2023-04-07T07:47:25.346Z,2260.00
2023-04-07T07:48:25.382Z,2596.00
2023-04-07T07:49:25.297Z,2728.00
2023-04-07T07:50:25.597Z,2788.00
2023-04-07T07:51:25.623Z,2864.00
2023-04-07T07:52:25.335Z,2848.00
2023-04-07T07:53:25.509Z,2884.00
2023-04-07T07:54:25.512Z,2716.00
2023-04-07T07:55:25.437Z,2692.00
2023-04-07T07:56:25.668Z,2836.00
2023-04-07T07:57:25.617Z,2780.00
2023-04-07T07:58:25.425Z,2956.00
2023-04-07T07:59:25.578Z,3012.00
2023-04-07T08:00:25.293Z,3036.00
2023-04-07T08:01:25.218Z,2916.00
2023-04-07T08:02:25.272Z,2864.00
2023-04-07T08:03:25.334Z,2516.00
2023-04-07T08:04:25.104Z,2256.00
2023-04-07T08:05:25.200Z,1980.00
2023-04-07T08:06:25.256Z,2580.00
2023-04-07T08:07:25.067Z,3372.00
2023-04-07T08:08:25.034Z,3052.00
2023-04-07T08:09:25.133Z,2728.00
2023-04-07T08:10:25.270Z,2160.00
2023-04-07T08:11:24.960Z,1936.00
2023-04-07T08:12:24.920Z,2724.00
2023-04-07T08:13:25.141Z,2828.00
2023-04-07T08:14:25.478Z,2796.00
2023-04-07T08:15:25.282Z,2656.00
2023-04-07T08:16:25.327Z,2496.00
2023-04-07T08:17:24.968Z,2960.00
2023-04-07T08:18:24.949Z,3064.00
2023-04-07T08:19:25.857Z,2840.00
2023-04-07T08:20:25.048Z,2316.00
2023-04-07T08:21:25.097Z,1944.00
2023-04-07T08:22:25.034Z,1972.00
2023-04-07T08:23:24.747Z,2120.00
2023-04-07T08:24:24.784Z,1992.00
2023-04-07T08:25:24.738Z,1624.00
2023-04-07T08:26:24.727Z,1548.00
2023-04-07T08:27:24.738Z,1488.00
2023-04-07T08:28:25.062Z,1480.00
2023-04-07T08:29:24.866Z,1452.00
2023-04-07T08:30:25.717Z,1256.00
2023-04-07T08:31:24.796Z,1264.00
2023-04-07T08:32:24.689Z,1372.00
2023-04-07T08:33:24.683Z,1356.00
2023-04-07T08:34:24.626Z,1456.00
2023-04-07T08:35:24.584Z,1664.00
2023-04-07T08:36:24.614Z,1632.00
2023-04-07T08:37:24.579Z,1528.00
2023-04-07T08:38:24.560Z,1508.00
2023-04-07T08:39:24.532Z,1432.00
2023-04-07T08:40:24.538Z,1420.00
2023-04-07T08:41:24.562Z,1328.00
2023-04-07T08:42:24.517Z,1308.00
2023-04-07T08:43:24.644Z,1436.00
2023-04-07T08:44:24.806Z,1456.00
2023-04-07T08:45:24.904Z,1344.00
2023-04-07T08:46:24.993Z,1208.00
2023-04-07T08:47:24.758Z,1112.00
2023-04-07T08:48:24.681Z,1152.00
2023-04-07T08:49:24.574Z,1172.00
2023-04-07T08:50:24.828Z,1328.00
2023-04-07T08:51:24.510Z,1136.00
2023-04-07T08:52:24.696Z,1120.00
2023-04-07T08:53:24.413Z,1296.00
2023-04-07T08:54:24.971Z,1476.00
2023-04-07T08:55:24.423Z,1392.00
2023-04-07T08:56:24.728Z,1440.00
2023-04-07T08:57:32.082Z,1860.00
2023-04-07T08:58:24.314Z,2236.00
2023-04-07T08:59:24.269Z,1992.00
2023-04-07T09:00:24.316Z,1736.00
2023-04-07T09:01:24.339Z,1640.00
2023-04-07T09:02:24.360Z,1484.00
2023-04-07T09:03:24.366Z,1468.00
2023-04-07T09:04:24.249Z,1560.00
2023-04-07T09:05:24.233Z,1624.00
2023-04-07T09:06:24.189Z,1516.00
2023-04-07T09:07:24.168Z,1580.00
2023-04-07T09:08:24.186Z,1604.00
2023-04-07T09:09:24.161Z,1604.00
2023-04-07T09:10:27.790Z,1704.00
2023-04-07T09:11:33.650Z,1556.00
2023-04-07T09:12:24.099Z,1512.00
2023-04-07T09:13:24.083Z,1436.00
2023-04-07T09:14:24.126Z,1480.00
2023-04-07T09:15:24.038Z,1516.00
2023-04-07T09:16:24.091Z,1648.00
2023-04-07T09:17:24.040Z,1612.00
2023-04-07T09:18:24.107Z,1564.00
2023-04-07T09:19:24.019Z,1428.00
2023-04-07T09:20:23.978Z,1428.00
2023-04-07T09:21:24.017Z,1344.00
2023-04-07T09:22:23.946Z,1424.00
2023-04-07T09:23:23.983Z,1384.00
2023-04-07T09:24:23.939Z,1600.00
2023-04-07T09:25:23.996Z,2176.00
2023-04-07T09:26:23.897Z,1820.00
2023-04-07T09:27:23.916Z,1804.00
2023-04-07T09:28:23.894Z,1808.00
2023-04-07T09:29:23.886Z,1576.00
2023-04-07T09:30:23.854Z,1440.00
2023-04-07T09:31:24.045Z,1612.00
2023-04-07T09:32:24.235Z,1696.00
2023-04-07T09:33:23.811Z,1776.00
2023-04-07T09:34:23.820Z,1540.00
2023-04-07T09:35:24.210Z,1600.00
2023-04-07T09:36:23.765Z,1696.00
2023-04-07T09:37:23.749Z,1760.00
2023-04-07T09:38:23.807Z,1764.00
2023-04-07T09:39:23.770Z,1800.00
2023-04-07T09:40:23.738Z,1820.00
2023-04-07T09:41:23.693Z,1836.00
2023-04-07T09:42:23.675Z,1832.00
2023-04-07T09:43:23.659Z,1832.00
2023-04-07T09:44:23.687Z,1876.00
2023-04-07T09:45:33.316Z,2008.00
2023-04-07T09:46:26.148Z,1936.00
2023-04-07T09:47:23.610Z,1920.00
2023-04-07T09:48:23.648Z,1804.00
2023-04-07T09:49:23.624Z,1672.00
2023-04-07T09:50:23.619Z,1628.00
2023-04-07T09:51:23.550Z,1672.00
2023-04-07T09:52:23.576Z,1788.00
2023-04-07T09:53:23.845Z,1784.00
2023-04-07T09:54:23.908Z,1780.00
2023-04-07T09:55:23.543Z,1748.00
2023-04-07T09:56:23.501Z,1868.00
2023-04-07T09:57:23.490Z,1708.00
2023-04-07T09:58:23.495Z,1952.00
2023-04-07T09:59:23.457Z,1884.00
2023-04-07T10:00:23.467Z,1848.00
2023-04-07T10:01:23.447Z,1860.00
2023-04-07T10:02:23.960Z,1860.00
2023-04-07T10:03:25.531Z,1900.00
2023-04-07T10:04:23.533Z,1992.00
2023-04-07T10:05:23.383Z,2152.00
2023-04-07T10:06:23.386Z,2348.00
2023-04-07T10:07:23.378Z,2392.00
2023-04-07T10:08:23.351Z,2376.00
2023-04-07T10:09:23.684Z,2268.00
2023-04-07T10:10:23.911Z,2440.00
2023-04-07T10:11:26.944Z,2576.00
2023-04-07T10:12:23.370Z,2564.00
2023-04-07T10:13:23.325Z,2788.00
2023-04-07T10:14:23.387Z,3380.00
2023-04-07T10:15:23.361Z,3652.00
2023-04-07T10:16:23.251Z,3724.00
2023-04-07T10:17:23.218Z,3768.00
2023-04-07T10:18:23.227Z,4084.00
2023-04-07T10:19:23.213Z,4320.00
2023-04-07T10:20:23.245Z,4416.00
2023-04-07T10:21:23.149Z,4540.00
2023-04-07T10:22:23.169Z,4636.00
2023-04-07T10:23:23.114Z,4548.00
2023-04-07T10:24:23.110Z,4548.00
2023-04-07T10:25:23.093Z,4484.00
2023-04-07T10:26:23.104Z,4308.00
2023-04-07T10:27:23.060Z,4380.00
2023-04-07T10:28:23.082Z,4136.00
2023-04-07T10:29:23.055Z,4004.00
2023-04-07T10:30:23.023Z,3956.00
2023-04-07T10:31:23.040Z,3788.00
2023-04-07T10:32:23.010Z,3636.00
2023-04-07T10:33:23.129Z,3348.00
2023-04-07T10:34:22.993Z,3452.00
2023-04-07T10:35:23.093Z,3368.00
2023-04-07T10:36:22.998Z,3364.00
2023-04-07T10:37:22.958Z,3620.00
2023-04-07T10:38:22.986Z,3516.00
2023-04-07T10:39:22.902Z,3280.00
2023-04-07T10:40:22.872Z,3392.00
2023-04-07T10:41:22.875Z,3404.00
2023-04-07T10:42:23.063Z,3372.00
2023-04-07T10:43:22.902Z,3300.00
2023-04-07T10:44:22.873Z,2720.00
2023-04-07T10:45:22.934Z,2096.00
2023-04-07T10:46:22.803Z,1872.00
2023-04-07T10:47:22.824Z,1868.00
2023-04-07T10:48:22.847Z,2300.00
2023-04-07T10:49:22.738Z,2408.00
2023-04-07T10:50:22.756Z,2164.00
2023-04-07T10:51:22.726Z,2128.00
2023-04-07T10:52:22.727Z,2116.00
2023-04-07T10:53:22.730Z,2308.00
2023-04-07T10:54:23.074Z,2456.00
2023-04-07T10:55:22.657Z,2468.00
2023-04-07T10:56:22.677Z,2544.00
2023-04-07T10:57:22.686Z,2548.00
2023-04-07T10:58:22.833Z,2504.00
2023-04-07T10:59:22.587Z,2620.00
2023-04-07T11:00:22.638Z,2580.00
2023-04-07T11:01:22.618Z,2624.00
2023-04-07T11:02:22.743Z,2712.00
2023-04-07T11:03:22.727Z,2772.00
2023-04-07T11:04:22.680Z,2860.00
2023-04-07T11:05:22.573Z,3004.00
2023-04-07T11:06:22.568Z,3128.00
2023-04-07T11:07:22.489Z,3192.00
2023-04-07T11:08:22.488Z,3448.00
2023-04-07T11:09:22.449Z,3540.00
2023-04-07T11:10:22.480Z,3692.00
2023-04-07T11:11:22.447Z,3856.00
2023-04-07T11:12:22.440Z,3864.00
2023-04-07T11:13:22.453Z,3684.00
2023-04-07T11:14:22.426Z,3292.00
2023-04-07T11:15:22.432Z,3008.00
2023-04-07T11:16:22.435Z,3116.00
2023-04-07T11:17:22.392Z,3188.00
2023-04-07T11:18:22.394Z,3168.00
2023-04-07T11:19:22.330Z,3164.00
2023-04-07T11:20:22.331Z,3128.00
2023-04-07T11:21:22.276Z,3196.00
2023-04-07T11:22:29.795Z,3208.00
2023-04-07T11:23:23.248Z,3260.00
2023-04-07T11:24:22.271Z,3268.00
2023-04-07T11:25:22.265Z,3424.00
2023-04-07T11:26:22.267Z,3524.00
2023-04-07T11:27:22.208Z,3556.00
2023-04-07T11:28:22.225Z,3376.00
2023-04-07T11:29:22.187Z,3256.00
2023-04-07T11:30:22.189Z,3184.00
2023-04-07T11:31:22.192Z,3072.00
2023-04-07T11:32:24.889Z,2916.00
2023-04-07T11:33:22.200Z,2852.00
2023-04-07T11:34:22.109Z,2592.00
2023-04-07T11:35:22.150Z,2552.00
2023-04-07T11:36:22.097Z,2756.00
2023-04-07T11:37:22.089Z,3172.00
2023-04-07T11:38:22.064Z,3452.00
2023-04-07T11:39:22.184Z,3696.00
2023-04-07T11:40:22.003Z,4020.00
2023-04-07T11:41:22.007Z,4184.00
2023-04-07T11:42:22.040Z,4280.00
2023-04-07T11:43:21.989Z,4368.00
2023-04-07T11:44:21.967Z,4560.00
2023-04-07T11:45:21.967Z,4680.00
2023-04-07T11:46:22.053Z,4888.00
2023-04-07T11:47:21.970Z,5072.00
2023-04-07T11:48:21.907Z,5192.00
2023-04-07T11:49:21.876Z,5184.00
2023-04-07T11:50:21.916Z,5188.00
2023-04-07T11:51:21.865Z,5244.00
2023-04-07T11:52:21.895Z,5332.00
2023-04-07T11:53:21.824Z,5268.00
2023-04-07T11:54:21.797Z,5084.00
2023-04-07T11:55:22.541Z,4632.00
2023-04-07T11:56:21.779Z,4320.00
2023-04-07T11:57:21.762Z,4156.00
2023-04-07T11:58:21.799Z,3936.00
2023-04-07T11:59:21.775Z,3684.00
2023-04-07T12:00:21.711Z,3668.00
2023-04-07T12:01:21.706Z,3804.00
2023-04-07T12:02:21.775Z,3736.00
2023-04-07T12:03:21.744Z,3620.00
2023-04-07T12:04:21.785Z,3552.00
2023-04-07T12:05:21.656Z,3524.00
2023-04-07T12:06:21.627Z,3304.00
2023-04-07T12:07:21.611Z,2896.00
2023-04-07T12:08:21.664Z,2488.00
2023-04-07T12:09:21.644Z,2220.00
2023-04-07T12:10:21.610Z,2260.00
2023-04-07T12:11:21.589Z,2916.00
2023-04-07T12:12:21.543Z,3384.00
2023-04-07T12:13:21.535Z,3252.00
2023-04-07T12:14:21.554Z,3144.00
2023-04-07T12:15:21.560Z,3428.00
2023-04-07T12:16:21.537Z,3792.00
2023-04-07T12:17:21.515Z,3920.00
2023-04-07T12:18:21.463Z,3824.00
2023-04-07T12:19:21.495Z,3860.00
2023-04-07T12:20:21.421Z,4212.00
2023-04-07T12:21:21.415Z,4420.00
2023-04-07T12:22:21.453Z,4700.00
2023-04-07T12:23:21.412Z,4976.00
2023-04-07T12:24:21.426Z,4832.00
2023-04-07T12:25:21.444Z,4112.00
2023-04-07T12:26:23.207Z,3220.00
2023-04-07T12:27:29.443Z,2584.00
2023-04-07T12:28:43.515Z,2432.00
2023-04-07T12:29:42.342Z,2652.00
2023-04-07T12:30:21.329Z,2992.00
2023-04-07T12:31:21.340Z,3492.00
2023-04-07T12:32:21.420Z,3828.00
2023-04-07T12:33:21.299Z,4184.00
2023-04-07T12:34:21.228Z,4392.00
2023-04-07T12:35:21.267Z,4508.00
2023-04-07T12:36:21.325Z,4692.00